createdAt,value
2023-01-17T00:00:43.476Z,2.07
2023-01-17T00:03:08.454Z,2.90
2023-01-17T00:05:49.221Z,2.40
2023-01-17T00:08:32.856Z,2.60
2023-01-17T00:10:59.222Z,2.40
2023-01-17T00:13:22.750Z,2.23
2023-01-17T00:15:46.420Z,2.57
2023-01-17T00:18:09.998Z,2.30
2023-01-17T00:20:51.432Z,2.63
2023-01-17T00:23:37.112Z,2.20
2023-01-17T00:26:04.031Z,2.53
2023-01-17T00:28:27.400Z,2.50
2023-01-17T00:30:50.106Z,2.30
2023-01-17T00:33:12.601Z,1.90
2023-01-17T00:35:35.223Z,2.40
2023-01-17T00:38:06.921Z,2.23
2023-01-17T00:40:31.080Z,2.00
2023-01-17T00:42:53.521Z,2.50
2023-01-17T00:45:34.995Z,2.60
2023-01-17T00:48:15.744Z,2.20
2023-01-17T00:50:57.129Z,2.37
2023-01-17T00:53:38.080Z,2.40
2023-01-17T00:56:21.564Z,1.90
2023-01-17T00:59:02.441Z,2.40
2023-01-17T01:01:43.377Z,2.60
2023-01-17T01:04:24.252Z,2.30
2023-01-17T01:07:05.101Z,2.47
2023-01-17T01:09:45.820Z,2.50
2023-01-17T01:12:28.209Z,2.43
2023-01-17T01:15:09.294Z,2.23
2023-01-17T01:17:50.801Z,2.70
2023-01-17T01:20:31.962Z,2.50
2023-01-17T01:23:13.071Z,2.70
2023-01-17T01:25:55.087Z,1.90
2023-01-17T01:28:37.466Z,2.57
2023-01-17T01:31:19.156Z,2.83
2023-01-17T01:33:42.773Z,2.47
2023-01-17T01:36:10.124Z,2.70
2023-01-17T01:38:33.720Z,2.57
2023-01-17T01:40:58.471Z,2.53
2023-01-17T01:43:45.109Z,2.70
2023-01-17T01:46:10.789Z,2.47
2023-01-17T01:48:39.599Z,2.60
2023-01-17T01:51:07.929Z,2.27
2023-01-17T01:53:34.458Z,2.40
2023-01-17T01:55:58.367Z,2.80
2023-01-17T01:58:26.736Z,2.60
2023-01-17T02:00:50.773Z,2.77
2023-01-17T02:03:19.143Z,2.90
2023-01-17T02:05:43.774Z,3.10
2023-01-17T02:08:10.366Z,2.70
2023-01-17T02:10:34.996Z,3.00
2023-01-17T02:12:59.056Z,2.43
2023-01-17T02:15:31.973Z,2.80
2023-01-17T02:18:10.381Z,2.67
2023-01-17T02:20:59.144Z,2.60
2023-01-17T02:24:16.379Z,2.80
2023-01-17T02:27:06.369Z,2.70
2023-01-17T02:30:14.752Z,2.70
2023-01-17T02:32:51.748Z,2.00
2023-01-17T02:35:29.715Z,2.83
2023-01-17T02:38:01.423Z,2.70
2023-01-17T02:40:29.527Z,2.90
2023-01-17T02:42:59.577Z,3.00
2023-01-17T02:45:23.698Z,2.90
2023-01-17T02:47:48.689Z,2.67
2023-01-17T02:50:16.979Z,3.93
2023-01-17T02:53:13.154Z,2.73
2023-01-17T02:55:50.425Z,3.20
2023-01-17T02:58:49.164Z,2.80
2023-01-17T03:01:27.257Z,3.13
2023-01-17T03:03:59.969Z,3.20
2023-01-17T03:06:31.146Z,3.00
2023-01-17T03:08:55.681Z,2.87
2023-01-17T03:11:19.933Z,2.83
2023-01-17T03:13:43.574Z,2.80
2023-01-17T03:16:12.824Z,2.73
2023-01-17T03:18:36.651Z,2.63
2023-01-17T03:21:01.590Z,2.70
2023-01-17T03:23:25.188Z,2.63
2023-01-17T03:25:48.702Z,2.50
2023-01-17T03:28:12.304Z,2.57
2023-01-17T03:30:35.905Z,2.87
2023-01-17T03:32:59.523Z,2.30
2023-01-17T03:35:23.030Z,2.20
2023-01-17T03:37:47.994Z,2.40
2023-01-17T03:40:12.809Z,2.33
2023-01-17T03:42:36.402Z,2.07
2023-01-17T03:45:00.999Z,2.00
2023-01-17T03:47:24.679Z,1.97
2023-01-17T03:49:48.200Z,2.07
2023-01-17T03:52:11.791Z,2.00
2023-01-17T03:54:36.745Z,1.37
2023-01-17T03:57:00.351Z,1.90
2023-01-17T03:59:23.966Z,1.63
2023-01-17T04:01:47.657Z,1.70
2023-01-17T04:04:11.298Z,1.40
2023-01-17T04:06:34.926Z,1.60
2023-01-17T04:08:58.406Z,1.40
2023-01-17T04:11:23.422Z,1.73
2023-01-17T04:13:46.981Z,1.60
2023-01-17T04:16:14.758Z,1.40
2023-01-17T04:18:38.368Z,1.50
2023-01-17T04:21:01.913Z,1.40
2023-01-17T04:23:25.422Z,1.30
2023-01-17T04:25:49.021Z,1.60
2023-01-17T04:28:14.588Z,1.40
2023-01-17T04:30:38.504Z,1.20
2023-01-17T04:33:02.194Z,1.50
2023-01-17T04:35:25.998Z,1.57
2023-01-17T04:37:49.514Z,1.40
2023-01-17T04:40:14.355Z,1.40
2023-01-17T04:42:38.022Z,1.10
2023-01-17T04:45:03.034Z,1.40
2023-01-17T04:47:26.540Z,1.40
2023-01-17T04:49:50.187Z,1.80
2023-01-17T04:52:15.080Z,1.37
2023-01-17T04:54:38.991Z,1.40
2023-01-17T04:57:02.528Z,1.30
2023-01-17T04:59:26.078Z,1.40
2023-01-17T05:01:51.271Z,1.40
2023-01-17T05:04:14.842Z,1.20
2023-01-17T05:06:38.375Z,1.20
2023-01-17T05:09:02.908Z,1.23
2023-01-17T05:11:26.535Z,1.60
2023-01-17T05:13:50.361Z,1.23
2023-01-17T05:16:13.881Z,1.40
2023-01-17T05:18:38.894Z,1.40
2023-01-17T05:21:06.135Z,1.30
2023-01-17T05:23:29.766Z,1.30
2023-01-17T05:25:53.250Z,1.17
2023-01-17T05:28:16.826Z,1.13
2023-01-17T05:30:40.526Z,1.13
2023-01-17T05:33:04.498Z,1.27
2023-01-17T05:35:32.582Z,1.10
2023-01-17T05:37:57.149Z,1.20
2023-01-17T05:40:22.675Z,1.33
2023-01-17T05:42:47.629Z,1.10
2023-01-17T05:45:12.540Z,1.10
2023-01-17T05:47:36.366Z,1.47
2023-01-17T05:49:59.936Z,1.40
2023-01-17T05:52:24.983Z,1.13
2023-01-17T05:54:50.615Z,1.27
2023-01-17T05:57:14.292Z,1.50
2023-01-17T05:59:37.841Z,1.50
2023-01-17T06:02:01.398Z,1.40
2023-01-17T06:04:25.022Z,1.60
2023-01-17T06:06:48.623Z,1.70
2023-01-17T06:09:13.642Z,1.50
2023-01-17T06:11:37.323Z,1.60
2023-01-17T06:14:00.855Z,1.50
2023-01-17T06:16:24.600Z,1.80
2023-01-17T06:18:48.112Z,1.40
2023-01-17T06:21:11.719Z,1.53
2023-01-17T06:23:35.214Z,1.40
2023-01-17T06:26:04.633Z,1.50
2023-01-17T06:28:28.130Z,1.57
2023-01-17T06:30:51.936Z,1.70
2023-01-17T06:33:16.209Z,1.50
2023-01-17T06:35:43.108Z,1.60
2023-01-17T06:38:06.644Z,1.43
2023-01-17T06:40:31.186Z,1.40
2023-01-17T06:42:56.149Z,1.30
2023-01-17T06:45:20.658Z,1.50
2023-01-17T06:47:44.683Z,1.40
2023-01-17T06:50:11.096Z,1.63
2023-01-17T06:52:34.661Z,1.67
2023-01-17T06:54:58.263Z,1.50
2023-01-17T06:57:21.768Z,1.13
2023-01-17T06:59:46.701Z,1.53
2023-01-17T07:02:12.227Z,1.73
2023-01-17T07:04:36.459Z,1.63
2023-01-17T07:06:59.973Z,1.73
2023-01-17T07:09:23.517Z,1.87
2023-01-17T07:11:47.033Z,1.50
2023-01-17T07:14:14.785Z,1.83
2023-01-17T07:16:39.705Z,1.70
2023-01-17T07:19:03.372Z,1.70
2023-01-17T07:21:27.033Z,1.70
2023-01-17T07:23:50.571Z,1.80
2023-01-17T07:26:14.137Z,1.90
2023-01-17T07:28:37.791Z,1.87
2023-01-17T07:31:05.955Z,1.97
2023-01-17T07:33:30.929Z,2.00
2023-01-17T07:35:54.449Z,1.60
2023-01-17T07:38:20.961Z,2.07
2023-01-17T07:40:44.595Z,2.10
2023-01-17T07:43:13.645Z,1.70
2023-01-17T07:45:38.291Z,1.40
2023-01-17T07:48:01.862Z,2.40
2023-01-17T07:50:26.849Z,1.87
2023-01-17T07:52:51.283Z,1.47
2023-01-17T07:55:14.815Z,2.00
2023-01-17T07:57:38.439Z,2.00
2023-01-17T08:00:01.973Z,1.97
2023-01-17T08:02:35.653Z,1.73
2023-01-17T08:04:59.266Z,1.60
2023-01-17T08:07:24.172Z,1.60
2023-01-17T08:09:49.855Z,1.50
2023-01-17T08:12:13.843Z,1.80
2023-01-17T08:14:37.481Z,1.50
2023-01-17T08:17:06.379Z,1.90
2023-01-17T08:19:29.928Z,1.27
2023-01-17T08:21:53.424Z,1.80
2023-01-17T08:24:18.560Z,2.10
2023-01-17T08:26:42.405Z,2.07
2023-01-17T08:29:06.075Z,1.63
2023-01-17T08:31:31.725Z,1.90
2023-01-17T08:33:55.361Z,1.80
2023-01-17T08:36:19.177Z,1.97
2023-01-17T08:38:42.771Z,1.97
2023-01-17T08:41:07.842Z,1.80
2023-01-17T08:43:31.445Z,1.70
2023-01-17T08:45:56.058Z,1.80
2023-01-17T08:48:19.762Z,1.70
2023-01-17T08:50:43.619Z,1.80
2023-01-17T08:53:07.431Z,1.67
2023-01-17T08:55:30.924Z,1.70
2023-01-17T08:57:55.896Z,1.47
2023-01-17T09:00:20.727Z,1.57
2023-01-17T09:02:44.300Z,1.73
2023-01-17T09:05:09.475Z,1.33
2023-01-17T09:07:33.162Z,0.93
2023-01-17T09:09:56.759Z,1.57
2023-01-17T09:12:22.194Z,1.50
2023-01-17T09:14:47.328Z,1.30
2023-01-17T09:17:11.653Z,1.60
2023-01-17T09:19:38.877Z,1.80
2023-01-17T09:22:02.792Z,1.30
2023-01-17T09:24:26.330Z,1.40
2023-01-17T09:26:50.120Z,1.13
2023-01-17T09:29:17.721Z,0.57
2023-01-17T09:31:42.834Z,1.10
2023-01-17T09:34:06.435Z,1.20
2023-01-17T09:36:33.930Z,1.27
2023-01-17T09:38:58.742Z,1.37
2023-01-17T09:41:27.709Z,1.33
2023-01-17T09:43:55.901Z,1.07
2023-01-17T09:46:26.249Z,1.27
2023-01-17T09:48:57.646Z,1.40
2023-01-17T09:51:24.591Z,1.10
2023-01-17T09:53:48.206Z,0.83
2023-01-17T09:56:16.344Z,1.10
2023-01-17T09:58:46.980Z,1.33
2023-01-17T10:01:19.371Z,1.10
2023-01-17T10:03:56.727Z,0.70
2023-01-17T10:06:56.199Z,0.80
2023-01-17T10:09:42.483Z,1.70
2023-01-17T10:12:22.950Z,1.20
2023-01-17T10:15:14.152Z,0.83
2023-01-17T10:17:50.463Z,0.83
2023-01-17T10:20:47.138Z,0.70
2023-01-17T10:23:34.904Z,0.70
2023-01-17T10:26:05.548Z,0.70
2023-01-17T10:28:36.375Z,1.00
2023-01-17T10:31:05.336Z,0.70
2023-01-17T10:33:33.226Z,0.70
2023-01-17T10:36:04.280Z,0.70
2023-01-17T10:38:34.843Z,0.87
2023-01-17T10:41:05.927Z,0.70
2023-01-17T10:43:42.011Z,0.70
2023-01-17T10:46:07.798Z,0.83
2023-01-17T10:48:41.358Z,0.80
2023-01-17T10:51:22.251Z,0.60
2023-01-17T10:54:08.590Z,0.47
2023-01-17T10:56:34.945Z,0.67
2023-01-17T10:59:18.381Z,0.80
2023-01-17T11:01:43.248Z,0.80
2023-01-17T11:04:21.766Z,0.73
2023-01-17T11:06:57.817Z,0.70
2023-01-17T11:09:39.472Z,0.73
2023-01-17T11:12:04.431Z,0.70
2023-01-17T11:14:31.070Z,0.60
2023-01-17T11:17:05.550Z,0.60
2023-01-17T11:19:33.279Z,0.87
2023-01-17T11:22:03.276Z,0.70
2023-01-17T11:24:36.359Z,0.60
2023-01-17T11:27:00.975Z,0.73
2023-01-17T11:29:36.813Z,0.53
2023-01-17T11:32:32.339Z,0.50
2023-01-17T11:35:21.503Z,0.50
2023-01-17T11:38:05.589Z,1.33
2023-01-17T11:40:33.419Z,0.70
2023-01-17T11:43:22.461Z,0.80
2023-01-17T11:45:48.833Z,0.97
2023-01-17T11:48:17.180Z,1.27
2023-01-17T11:50:43.920Z,1.20
2023-01-17T11:53:20.229Z,1.47
2023-01-17T11:55:59.576Z,1.17
2023-01-17T11:58:24.261Z,1.10
2023-01-17T12:00:53.385Z,1.13
2023-01-17T12:03:32.310Z,1.17
2023-01-17T12:06:04.217Z,1.20
2023-01-17T12:08:44.104Z,1.20
2023-01-17T12:11:17.127Z,1.30
2023-01-17T12:14:00.549Z,1.20
2023-01-17T12:16:41.142Z,1.60
2023-01-17T12:19:27.409Z,1.37
2023-01-17T12:22:07.203Z,1.30
2023-01-17T12:24:49.129Z,1.60
2023-01-17T12:27:22.784Z,1.50
2023-01-17T12:29:59.811Z,1.30
2023-01-17T12:32:46.550Z,1.40
2023-01-17T12:35:16.199Z,1.40
2023-01-17T12:37:42.669Z,1.50
2023-01-17T12:40:22.633Z,1.43
2023-01-17T12:42:53.196Z,1.20
2023-01-17T12:45:25.091Z,1.30
2023-01-17T12:47:54.898Z,1.10
2023-01-17T12:50:26.302Z,1.00
2023-01-17T12:53:00.789Z,1.23
2023-01-17T12:55:37.751Z,1.40
2023-01-17T12:58:03.875Z,1.37
2023-01-17T13:00:30.404Z,1.33
2023-01-17T13:03:00.247Z,1.40
2023-01-17T13:05:31.000Z,1.30
2023-01-17T13:08:02.829Z,1.10
2023-01-17T13:10:33.024Z,1.13
2023-01-17T13:13:01.731Z,1.30
2023-01-17T13:15:30.431Z,1.50
2023-01-17T13:18:03.376Z,1.77
2023-01-17T13:20:33.226Z,1.37
2023-01-17T13:23:04.465Z,1.60
2023-01-17T13:25:42.480Z,1.10
2023-01-17T13:28:25.760Z,1.30
2023-01-17T13:31:36.231Z,1.20
2023-01-17T13:34:29.354Z,1.10
2023-01-17T13:37:17.058Z,1.30
2023-01-17T13:40:04.012Z,1.30
2023-01-17T13:42:44.268Z,0.80
2023-01-17T13:45:21.270Z,1.37
2023-01-17T13:47:45.040Z,1.20
2023-01-17T13:50:48.071Z,1.37
2023-01-17T13:54:00.237Z,1.30
2023-01-17T13:56:36.069Z,1.30
2023-01-17T13:59:05.196Z,1.50
2023-01-17T14:01:54.413Z,1.30
2023-01-17T14:04:18.067Z,1.50
2023-01-17T14:06:44.698Z,1.40
2023-01-17T14:09:18.148Z,1.30
2023-01-17T14:12:04.927Z,1.50
2023-01-17T14:14:52.090Z,1.60
2023-01-17T14:17:57.057Z,1.50
2023-01-17T14:20:52.300Z,3.00
2023-01-17T14:23:51.177Z,3.10
2023-01-17T14:26:48.186Z,5.03
2023-01-17T14:29:55.969Z,1.97
2023-01-17T14:32:22.589Z,1.40
2023-01-17T14:34:48.304Z,1.87
2023-01-17T14:37:38.255Z,2.10
2023-01-17T14:40:02.260Z,2.07
2023-01-17T14:42:29.611Z,3.53
2023-01-17T14:45:01.549Z,2.20
2023-01-17T14:47:25.554Z,2.30
2023-01-17T14:49:49.267Z,9.33
2023-01-17T14:52:18.746Z,23.47
2023-01-17T14:54:49.840Z,17.07
2023-01-17T14:57:27.469Z,17.83
2023-01-17T14:59:51.055Z,16.43
2023-01-17T15:02:19.204Z,16.47
2023-01-17T15:04:44.666Z,10.10
2023-01-17T15:07:13.517Z,9.03
2023-01-17T15:09:39.209Z,11.97
2023-01-17T15:12:04.174Z,6.50
2023-01-17T15:14:33.439Z,6.90
2023-01-17T15:16:57.109Z,12.70
2023-01-17T15:19:23.369Z,8.97
2023-01-17T15:21:50.642Z,2.87
2023-01-17T15:24:21.100Z,6.90
2023-01-17T15:26:45.350Z,6.93
2023-01-17T15:29:15.771Z,8.93
2023-01-17T15:31:43.696Z,31.60
2023-01-17T15:34:10.686Z,20.90
2023-01-17T15:36:36.408Z,13.57
2023-01-17T15:39:03.529Z,11.90
2023-01-17T15:41:30.879Z,21.40
2023-01-17T15:43:57.615Z,11.60
2023-01-17T15:46:25.755Z,7.53
2023-01-17T15:48:50.625Z,4.80
2023-01-17T15:51:16.295Z,3.87
2023-01-17T15:53:43.239Z,2.17
2023-01-17T15:56:30.664Z,2.70
2023-01-17T15:58:54.271Z,2.43
2023-01-17T16:01:18.465Z,2.20
2023-01-17T16:03:52.899Z,2.10
2023-01-17T16:06:38.250Z,1.73
2023-01-17T16:09:04.661Z,2.60
2023-01-17T16:11:29.407Z,2.30
2023-01-17T16:13:53.007Z,1.90
2023-01-17T16:16:27.177Z,3.13
2023-01-17T16:18:57.961Z,1.80
2023-01-17T16:21:25.931Z,2.53
2023-01-17T16:23:50.296Z,2.43
2023-01-17T16:26:15.294Z,2.00
2023-01-17T16:28:39.044Z,2.23
2023-01-17T16:31:02.641Z,2.30
2023-01-17T16:33:26.214Z,2.30
2023-01-17T16:35:51.268Z,2.50
2023-01-17T16:38:17.678Z,2.83
2023-01-17T16:40:43.904Z,2.83
2023-01-17T16:43:09.192Z,3.40
2023-01-17T16:45:32.950Z,5.93
2023-01-17T16:47:56.982Z,6.23
2023-01-17T16:50:24.915Z,5.30
2023-01-17T16:52:48.464Z,6.20
2023-01-17T16:55:16.077Z,7.10
2023-01-17T16:57:39.914Z,6.97
2023-01-17T17:00:07.311Z,9.47
2023-01-17T17:02:30.851Z,10.07
2023-01-17T17:04:54.582Z,10.53
2023-01-17T17:07:18.271Z,11.97
2023-01-17T17:09:41.895Z,11.27
2023-01-17T17:12:06.380Z,8.93
2023-01-17T17:14:30.189Z,8.37
2023-01-17T17:16:55.360Z,8.40
2023-01-17T17:19:19.317Z,11.27
2023-01-17T17:21:42.928Z,7.07
2023-01-17T17:24:07.349Z,6.93
2023-01-17T17:26:34.481Z,6.50
2023-01-17T17:28:59.167Z,7.13
2023-01-17T17:31:24.549Z,6.80
2023-01-17T17:33:50.040Z,6.20
2023-01-17T17:36:13.600Z,6.33
2023-01-17T17:38:37.930Z,7.17
2023-01-17T17:41:07.624Z,6.43
2023-01-17T17:43:31.222Z,7.10
2023-01-17T17:45:54.808Z,6.93
2023-01-17T17:48:18.487Z,6.43
2023-01-17T17:50:43.581Z,6.23
2023-01-17T17:53:08.509Z,6.83
2023-01-17T17:55:32.247Z,8.30
2023-01-17T17:57:55.983Z,8.60
2023-01-17T18:00:20.938Z,7.60
2023-01-17T18:02:44.562Z,8.17
2023-01-17T18:05:09.061Z,8.23
2023-01-17T18:07:34.373Z,10.80
2023-01-17T18:09:57.973Z,11.33
2023-01-17T18:12:21.588Z,11.37
2023-01-17T18:14:45.162Z,10.07
2023-01-17T18:17:08.823Z,10.17
2023-01-17T18:19:32.432Z,11.03
2023-01-17T18:21:56.248Z,12.77
2023-01-17T18:24:23.317Z,11.20
2023-01-17T18:26:49.933Z,11.10
2023-01-17T18:29:16.362Z,11.80
2023-01-17T18:31:40.128Z,12.50
2023-01-17T18:34:07.364Z,14.83
2023-01-17T18:36:31.051Z,16.73
2023-01-17T18:38:54.712Z,14.17
2023-01-17T18:41:22.574Z,12.53
2023-01-17T18:43:46.538Z,12.27
2023-01-17T18:46:12.543Z,12.73
2023-01-17T18:48:36.387Z,12.43
2023-01-17T18:51:03.269Z,12.83
2023-01-17T18:53:27.069Z,12.03
2023-01-17T18:55:57.040Z,12.40
2023-01-17T18:58:22.587Z,13.67
2023-01-17T19:00:46.125Z,14.50
2023-01-17T19:03:09.764Z,13.67
2023-01-17T19:05:36.588Z,14.53
2023-01-17T19:08:00.107Z,18.63
2023-01-17T19:10:23.671Z,17.77
2023-01-17T19:12:47.207Z,19.13
2023-01-17T19:15:12.906Z,20.23
2023-01-17T19:17:36.476Z,22.37
2023-01-17T19:20:00.242Z,18.60
2023-01-17T19:22:23.797Z,49.77
2023-01-17T19:24:47.421Z,39.33
2023-01-17T19:27:13.094Z,48.07
2023-01-17T19:29:36.927Z,48.63
2023-01-17T19:32:01.847Z,50.50
2023-01-17T19:34:25.420Z,41.10
2023-01-17T19:36:49.203Z,44.90
2023-01-17T19:39:13.277Z,36.87
2023-01-17T19:41:39.077Z,34.77
2023-01-17T19:44:04.796Z,40.27
2023-01-17T19:46:28.891Z,38.67
2023-01-17T19:48:54.980Z,36.43
2023-01-17T19:51:18.548Z,35.40
2023-01-17T19:53:42.905Z,34.73
2023-01-17T19:56:08.902Z,33.87
2023-01-17T19:58:32.532Z,35.53
2023-01-17T20:00:56.247Z,33.53
2023-01-17T20:03:20.078Z,39.67
2023-01-17T20:05:46.175Z,37.93
2023-01-17T20:08:10.800Z,37.60
2023-01-17T20:10:34.399Z,36.33
2023-01-17T20:12:57.933Z,36.37
2023-01-17T20:15:23.954Z,35.17
2023-01-17T20:17:47.487Z,28.87
2023-01-17T20:20:13.565Z,29.57
2023-01-17T20:22:38.552Z,32.47
2023-01-17T20:25:02.155Z,31.73
2023-01-17T20:27:26.686Z,28.77
2023-01-17T20:29:51.423Z,24.10
2023-01-17T20:32:14.942Z,25.70
2023-01-17T20:34:38.493Z,24.73
2023-01-17T20:37:02.281Z,23.10
2023-01-17T20:39:27.457Z,23.93
2023-01-17T20:41:52.028Z,23.20
2023-01-17T20:44:16.984Z,22.63
2023-01-17T20:46:41.922Z,22.53
2023-01-17T20:49:07.674Z,23.27
2023-01-17T20:51:34.399Z,25.40
2023-01-17T20:54:02.584Z,25.10
2023-01-17T20:56:30.254Z,26.37
2023-01-17T20:58:54.452Z,24.17
2023-01-17T21:01:21.162Z,23.17
2023-01-17T21:03:44.812Z,25.33
2023-01-17T21:06:10.430Z,25.63
2023-01-17T21:08:36.226Z,24.57
2023-01-17T21:11:00.009Z,26.10
2023-01-17T21:13:25.409Z,25.50
2023-01-17T21:15:50.575Z,29.23
2023-01-17T21:18:14.353Z,31.17
2023-01-17T21:20:37.994Z,30.33
2023-01-17T21:23:01.601Z,28.90
2023-01-17T21:25:25.152Z,28.73
2023-01-17T21:27:48.739Z,30.03
2023-01-17T21:30:15.465Z,30.37
2023-01-17T21:32:39.052Z,27.33
2023-01-17T21:35:02.589Z,27.20
2023-01-17T21:37:26.177Z,26.33
2023-01-17T21:39:54.710Z,24.40
2023-01-17T21:42:18.376Z,24.27
2023-01-17T21:44:41.994Z,22.40
2023-01-17T21:47:07.045Z,20.80
2023-01-17T21:49:30.645Z,19.57
2023-01-17T21:52:11.908Z,19.33
2023-01-17T21:54:52.880Z,17.03
2023-01-17T21:57:37.881Z,17.63
2023-01-17T22:00:01.503Z,20.40
2023-01-17T22:02:26.584Z,19.83
2023-01-17T22:04:50.256Z,22.07
2023-01-17T22:07:13.870Z,25.23
2023-01-17T22:09:37.503Z,25.30
2023-01-17T22:12:00.991Z,24.87
2023-01-17T22:14:24.544Z,26.87
2023-01-17T22:16:48.631Z,26.43
2023-01-17T22:19:13.722Z,28.50
2023-01-17T22:21:37.356Z,31.20
2023-01-17T22:24:01.445Z,29.20
2023-01-17T22:26:29.180Z,29.23
2023-01-17T22:28:54.170Z,29.33
2023-01-17T22:31:20.898Z,28.67
2023-01-17T22:33:46.608Z,25.70
2023-01-17T22:36:13.765Z,28.87
2023-01-17T22:38:37.660Z,25.80
2023-01-17T22:41:07.967Z,27.00
2023-01-17T22:43:31.636Z,26.03
2023-01-17T22:46:00.643Z,27.23
2023-01-17T22:48:24.299Z,27.27
2023-01-17T22:50:47.991Z,27.33
2023-01-17T22:53:12.972Z,26.57
2023-01-17T22:55:36.509Z,27.17
2023-01-17T22:58:00.126Z,26.83
2023-01-17T23:00:23.856Z,26.70
2023-01-17T23:02:47.478Z,28.40
2023-01-17T23:05:11.524Z,30.53
2023-01-17T23:07:43.046Z,32.33
2023-01-17T23:10:09.237Z,32.20
2023-01-17T23:12:32.745Z,29.33
2023-01-17T23:15:13.957Z,30.20
2023-01-17T23:17:54.859Z,27.33
2023-01-17T23:20:18.757Z,29.77
2023-01-17T23:22:42.259Z,28.37
2023-01-17T23:25:10.987Z,29.50
2023-01-17T23:27:54.619Z,25.80
2023-01-17T23:30:20.502Z,25.43
2023-01-17T23:32:47.101Z,25.70
2023-01-17T23:35:11.071Z,26.00
2023-01-17T23:37:51.912Z,27.37
2023-01-17T23:40:18.369Z,28.33
2023-01-17T23:42:59.337Z,27.23
2023-01-17T23:45:23.083Z,27.13
2023-01-17T23:47:46.772Z,29.07
2023-01-17T23:50:12.059Z,29.67
2023-01-17T23:52:35.589Z,29.57
2023-01-17T23:54:59.364Z,29.83
2023-01-17T23:57:24.608Z,32.47
2023-01-17T23:59:48.259Z,33.40
